Priwall — V2OX8 — position and weather

sailwx.info

Track history (hours):
 
Tides and Currents Weather Stations Pressure Air Temp Water Temp Dewpoint Dewpoint Depression Visibility Wind Speed Wind Dir Waves Ship Positions

Priwall

Last reported at 2014-Oct-31 07:33 UTC. Time now 2014-Oct-31 07:53 UTC.
Position N 50°51' E 001°03'.

Length 88 m; draft 5.2 m.

Type: Cargo ship. MMSI: 304739000.

Date/timePositionNaut miles runAvg speedWind from/ knotsBaromVisibWave heightAir tempDewpointWater temp
2014-Oct-31 07:33N 50°51' E 001°03'10 9.4
2014-Oct-31 06:29N 50°58' E 001°15'8 8.4
2014-Oct-31 05:33N 51°03' E 001°24'8 8.0
2014-Oct-31 04:33N 51°08' E 001°34'8 8.4
2014-Oct-31 03:33N 51°13' E 001°45'10 9.6
2014-Oct-31 02:33N 51°22' E 001°52'1111.2
2014-Oct-31 01:33N 51°31' E 002°02'1211.8
2014-Oct-31 00:33N 51°40' E 002°15'1211.5
2014-Oct-30 23:33N 51°48' E 002°27'1110.8
2014-Oct-30 22:33N 51°57' E 002°39'1010.0
2014-Oct-30 21:33N 52°04' E 002°49'22 9.1
2014-Oct-30 19:05N 52°22' E 003°11'47 9.6
2014-Oct-30 14:11N 52°59' E 003°60'710.7
2014-Oct-30 13:33N 53°03' E 004°08'1110.5
2014-Oct-30 12:31N 53°09' E 004°23'28 8.8
2014-Oct-30 09:22N 53°31' E 004°51'8 9.0
2014-Oct-30 08:31N 53°34' E 005°03'9 9.7
2014-Oct-30 07:33N 53°38' E 005°17'1110.5
2014-Oct-30 06:33N 53°41' E 005°34'1110.8
2014-Oct-30 05:33N 53°44' E 005°52'59 9.5
2014-Oct-29 23:24N 53°60' E 007°28'7 8.7
2014-Oct-29 22:33N 54°01' E 007°40'9 9.2
2014-Oct-29 21:33N 54°02' E 007°56'1010.2
2014-Oct-29 20:32N 54°01' E 008°13'1111.5
2014-Oct-29 19:33N 53°58' E 008°32'1211.7
2014-Oct-29 18:33N 53°51' E 008°47'1110.6
2014-Oct-29 17:33N 53°53' E 009°05'3 2.7
2014-Oct-29 16:33N 53°54' E 009°09'2 1.7
2014-Oct-29 15:33N 53°55' E 009°11'0 0.0
2014-Oct-29 14:33N 53°55' E 009°11'0 0.0
2014-Oct-29 13:33N 53°55' E 009°11'2 2.2
2014-Oct-29 12:33N 53°57' E 009°13'8 8.3
2014-Oct-29 11:33N 54°04' E 009°19'8 7.7
2014-Oct-29 10:33N 54°10' E 009°27'13 6.6
2014-Oct-29 08:33N 54°19' E 009°43'7 7.4
2014-Oct-29 07:33N 54°21' E 009°56'8 7.6
2014-Oct-29 06:33N 54°22' E 010°08'1 0.7
2014-Oct-29 05:33N 54°22' E 010°10'1 0.8
2014-Oct-29 04:33N 54°23' E 010°11'0 0.0
2014-Oct-29 03:33N 54°23' E 010°11'8 7.8
2014-Oct-29 02:33N 54°30' E 010°17'9 9.0
2014-Oct-29 01:33N 54°33' E 010°31'8 8.3
2014-Oct-29 00:32N 54°35' E 010°45'11 8.1
2014-Oct-28 23:11N 54°36' E 011°04'8 7.4
2014-Oct-28 22:08N 54°34' E 011°17'5 8.7
2014-Oct-28 21:31N 54°32' E 011°25'8 8.0
2014-Oct-28 20:32N 54°29' E 011°37'8 7.8
2014-Oct-28 19:29N 54°25' E 011°50'8 8.7
2014-Oct-28 18:33N 54°19' E 012°00'9 9.0
2014-Oct-28 17:33N 54°11' E 012°06'3 3.4
2014-Oct-28 16:33N 54°08' E 012°05'0 0.0
2014-Oct-28 14:11N 54°08' E 012°05'0 0.0
2014-Oct-28 12:32N 54°08' E 012°05'0 0.0
2014-Oct-28 11:23N 54°08' E 012°05'0 0.0
2014-Oct-28 10:14N 54°08' E 012°05'0 0.0
2014-Oct-28 09:27N 54°08' E 012°05'0 0.0
2014-Oct-28 08:32N 54°08' E 012°05'0 0.0
2014-Oct-28 07:29N 54°08' E 012°05'0 0.0
2014-Oct-28 06:29N 54°08' E 012°05'0 0.0
2014-Oct-28 04:29N 54°08' E 012°05'0 0.0
2014-Oct-28 03:11N 54°08' E 012°05'0 0.0
2014-Oct-28 01:32N 54°08' E 012°05'0 0.0
2014-Oct-28 00:29N 54°08' E 012°05'0 0.0
2014-Oct-27 23:32N 54°08' E 012°05'0 0.0
2014-Oct-27 22:32N 54°08' E 012°05'0 0.0
2014-Oct-27 21:32N 54°08' E 012°05'0 0.0
2014-Oct-27 20:32N 54°08' E 012°05'0 0.0
2014-Oct-27 19:23N 54°08' E 012°05'0 0.0
2014-Oct-27 18:32N 54°08' E 012°05'0 0.0
2014-Oct-27 17:32N 54°08' E 012°05'0 0.0
2014-Oct-27 16:32N 54°08' E 012°05'0 0.0
2014-Oct-27 14:29N 54°08' E 012°05'0 0.0
2014-Oct-27 13:29N 54°08' E 012°05'0 0.0
2014-Oct-27 11:29N 54°08' E 012°05'0 0.1
2014-Oct-27 10:14N 54°08' E 012°05'0 0.0
2014-Oct-27 09:32N 54°08' E 012°05'0 0.0
2014-Oct-27 08:11N 54°08' E 012°05'0 0.0
2014-Oct-27 07:08N 54°08' E 012°05'0 0.0
2014-Oct-27 06:08N 54°08' E 012°05'0 0.0
2014-Oct-27 04:23N 54°08' E 012°05'0 0.0
2014-Oct-27 02:32N 54°08' E 012°05'0 0.0
2014-Oct-27 01:29N 54°08' E 012°05'0 0.0
2014-Oct-27 00:23N 54°08' E 012°05'0 0.0
2014-Oct-26 23:23N 54°08' E 012°05'0 0.0
2014-Oct-26 22:23N 54°08' E 012°05'0 0.0
2014-Oct-26 21:29N 54°08' E 012°05'0 0.0
2014-Oct-26 20:26N 54°08' E 012°05'0 0.0
2014-Oct-26 18:29N 54°08' E 012°05'0 0.0
2014-Oct-26 17:32N 54°08' E 012°05'0 0.0
2014-Oct-26 16:23N 54°08' E 012°05'0 0.0
2014-Oct-26 14:14N 54°08' E 012°05'0 0.0
2014-Oct-26 13:14N 54°08' E 012°05'0 0.0
2014-Oct-26 12:11N 54°08' E 012°05'0 0.0
2014-Oct-26 11:32N 54°08' E 012°05'0 0.0
2014-Oct-26 10:32N 54°08' E 012°05'0 0.0
2014-Oct-26 08:28N 54°08' E 012°05'0 0.0
2014-Oct-26 07:32N 54°08' E 012°05'0 0.0
2014-Oct-26 06:29N 54°08' E 012°05'0 0.0
2014-Oct-26 05:20N 54°08' E 012°05'0 0.0
2014-Oct-26 04:03N 54°08' E 012°05'0 0.0
2014-Oct-26 03:32N 54°08' E 012°05'0 0.0
2014-Oct-26 02:23N 54°08' E 012°05'0 0.0
2014-Oct-26 01:32N 54°08' E 012°05'0 0.0
2014-Oct-26 00:32N 54°08' E 012°05'0 0.0
2014-Oct-25 23:29N 54°08' E 012°05'0 0.0
2014-Oct-25 20:32N 54°08' E 012°05'0 0.0
2014-Oct-25 19:29N 54°08' E 012°05'0 0.0
2014-Oct-25 18:29N 54°08' E 012°05'0 0.0
2014-Oct-25 17:24N 54°08' E 012°05'0 0.0
2014-Oct-25 16:32N 54°08' E 012°05'0 0.0
2014-Oct-25 15:32N 54°08' E 012°05'0 0.0
2014-Oct-25 14:08N 54°08' E 012°05'0 0.0
2014-Oct-25 13:32N 54°08' E 012°05'0 0.0
2014-Oct-25 12:11N 54°08' E 012°05'0 0.0
2014-Oct-25 11:32N 54°08' E 012°05'0 0.0
2014-Oct-25 10:32N 54°08' E 012°05'0 0.0
2014-Oct-25 09:32N 54°08' E 012°05'0 0.0
2014-Oct-25 08:11N 54°08' E 012°05'0 0.0
2014-Oct-25 07:26N 54°08' E 012°05'0 0.0
2014-Oct-25 00:32N 54°08' E 012°05'0 0.0
2014-Oct-24 23:11N 54°08' E 012°05'0 0.0
2014-Oct-24 22:14N 54°08' E 012°05'0 0.0
2014-Oct-24 20:14N 54°08' E 012°05'0 0.0
2014-Oct-24 19:09N 54°08' E 012°05'0 0.0
2014-Oct-24 18:32N 54°08' E 012°05'0 0.0
2014-Oct-24 17:29N 54°08' E 012°05'0 0.0
2014-Oct-24 16:15N 54°08' E 012°05'0 0.0
2014-Oct-24 14:29N 54°08' E 012°05'0 0.4
2014-Oct-24 13:31N 54°07' E 012°05'5 5.3
2014-Oct-24 12:30N 54°13' E 012°04'1010.3
2014-Oct-24 11:31N 54°20' E 011°52'4210.2
2014-Oct-24 07:22N 54°34' E 010°43'910.7
2014-Oct-24 06:33N 54°32' E 010°29'1110.8
2014-Oct-24 05:33N 54°26' E 010°14'5 5.0
2014-Oct-24 04:33N 54°22' E 010°09'4 3.9
2014-Oct-24 03:33N 54°22' E 010°02'4 4.1
2014-Oct-24 02:33N 54°21' E 009°55'7 7.4
2014-Oct-24 01:33N 54°19' E 009°43'8 7.9
2014-Oct-24 00:33N 54°13' E 009°34'24 6.0
2014-Oct-23 20:30N 53°54' E 009°09'2 2.5
2014-Oct-23 19:33N 53°53' E 009°05'7 6.7
2014-Oct-23 18:33N 53°51' E 008°54'6 6.0
2014-Oct-23 17:33N 53°52' E 008°44'6 5.6
2014-Oct-23 16:33N 53°56' E 008°39'7 6.6
2014-Oct-23 15:33N 53°59' E 008°28'8 7.4
2014-Oct-23 14:31N 53°60' E 008°16'74 9.2
2014-Oct-23 06:28N 53°54' E 006°10'1010.8
2014-Oct-23 05:33N 53°55' E 005°53'1010.4
2014-Oct-23 04:33N 53°57' E 005°36'10 9.7
2014-Oct-23 03:33N 53°58' E 005°19'9 9.0
2014-Oct-23 02:33N 53°59' E 005°04'9 8.8
2014-Oct-23 01:33N 53°60' E 004°49'7 7.2
2014-Oct-23 00:31N 54°07' E 004°48'8 8.0
2014-Oct-22 23:31N 54°07' E 004°35'146 9.1
2014-Oct-22 07:31N 53°34' E 000°34'9 9.8
2014-Oct-22 06:33N 53°33' E 000°19'1010.1
2014-Oct-22 05:33N 53°35' E 000°02'1010.1
2014-Oct-22 04:33N 53°40' W 000°12'6 6.3
2014-Oct-22 03:33N 53°44' W 000°21'0 0.0
2014-Oct-22 02:28N 53°44' W 000°21'0 0.0
2014-Oct-22 01:31N 53°44' W 000°21'0 0.0
2014-Oct-22 00:31N 53°44' W 000°21'0 0.0
2014-Oct-21 23:28N 53°44' W 000°21'0 0.0
2014-Oct-21 22:31N 53°44' W 000°21'0 0.0
2014-Oct-21 21:28N 53°44' W 000°21'0 0.0
2014-Oct-21 20:22N 53°44' W 000°21'0 0.0
2014-Oct-21 19:25N 53°44' W 000°21'0 0.0
2014-Oct-21 18:31N 53°44' W 000°21'0 0.0
2014-Oct-21 17:19N 53°44' W 000°21'0 0.0
2014-Oct-21 16:28N 53°44' W 000°21'0 0.0
2014-Oct-21 15:28N 53°44' W 000°21'0 0.0
2014-Oct-21 14:25N 53°44' W 000°21'0 0.0
2014-Oct-21 13:31N 53°44' W 000°21'0 0.0
2014-Oct-21 12:25N 53°44' W 000°21'0 0.0
2014-Oct-21 11:31N 53°44' W 000°21'0 0.0
2014-Oct-21 10:19N 53°44' W 000°21'0 0.0
2014-Oct-21 09:19N 53°44' W 000°21'0 0.0
2014-Oct-21 08:31N 53°44' W 000°21'  
Track history (hours):
 
Tides and Currents Weather Stations Pressure Air Temp Water Temp Dewpoint Dewpoint Depression Visibility Wind Speed Wind Dir Waves Ship Positions

Priwall

Last reported at 2014-Oct-31 07:33 UTC. Time now 2014-Oct-31 07:53 UTC.
Position N 50°51' E 001°03'.

Length 88 m; draft 5.2 m.

Type: Cargo ship. MMSI: 304739000.

Date/timePositionNaut miles runAvg speedWind from/ knotsBaromVisibWave heightAir tempDewpointWater temp
2014-Oct-31 07:33N 50°51' E 001°03'10 9.4
2014-Oct-31 06:29N 50°58' E 001°15'8 8.4
2014-Oct-31 05:33N 51°03' E 001°24'8 8.0
2014-Oct-31 04:33N 51°08' E 001°34'8 8.4
2014-Oct-31 03:33N 51°13' E 001°45'10 9.6
2014-Oct-31 02:33N 51°22' E 001°52'1111.2
2014-Oct-31 01:33N 51°31' E 002°02'1211.8
2014-Oct-31 00:33N 51°40' E 002°15'1211.5
2014-Oct-30 23:33N 51°48' E 002°27'1110.8
2014-Oct-30 22:33N 51°57' E 002°39'1010.0
2014-Oct-30 21:33N 52°04' E 002°49'22 9.1
2014-Oct-30 19:05N 52°22' E 003°11'47 9.6
2014-Oct-30 14:11N 52°59' E 003°60'710.7
2014-Oct-30 13:33N 53°03' E 004°08'1110.5
2014-Oct-30 12:31N 53°09' E 004°23'28 8.8
2014-Oct-30 09:22N 53°31' E 004°51'8 9.0
2014-Oct-30 08:31N 53°34' E 005°03'9 9.7
2014-Oct-30 07:33N 53°38' E 005°17'1110.5
2014-Oct-30 06:33N 53°41' E 005°34'1110.8
2014-Oct-30 05:33N 53°44' E 005°52'59 9.5
2014-Oct-29 23:24N 53°60' E 007°28'7 8.7
2014-Oct-29 22:33N 54°01' E 007°40'9 9.2
2014-Oct-29 21:33N 54°02' E 007°56'1010.2
2014-Oct-29 20:32N 54°01' E 008°13'1111.5
2014-Oct-29 19:33N 53°58' E 008°32'1211.7
2014-Oct-29 18:33N 53°51' E 008°47'1110.6
2014-Oct-29 17:33N 53°53' E 009°05'3 2.7
2014-Oct-29 16:33N 53°54' E 009°09'2 1.7
2014-Oct-29 15:33N 53°55' E 009°11'0 0.0
2014-Oct-29 14:33N 53°55' E 009°11'0 0.0
2014-Oct-29 13:33N 53°55' E 009°11'2 2.2
2014-Oct-29 12:33N 53°57' E 009°13'8 8.3
2014-Oct-29 11:33N 54°04' E 009°19'8 7.7
2014-Oct-29 10:33N 54°10' E 009°27'13 6.6
2014-Oct-29 08:33N 54°19' E 009°43'7 7.4
2014-Oct-29 07:33N 54°21' E 009°56'8 7.6
2014-Oct-29 06:33N 54°22' E 010°08'1 0.7
2014-Oct-29 05:33N 54°22' E 010°10'1 0.8
2014-Oct-29 04:33N 54°23' E 010°11'0 0.0
2014-Oct-29 03:33N 54°23' E 010°11'8 7.8
2014-Oct-29 02:33N 54°30' E 010°17'9 9.0
2014-Oct-29 01:33N 54°33' E 010°31'8 8.3
2014-Oct-29 00:32N 54°35' E 010°45'11 8.1
2014-Oct-28 23:11N 54°36' E 011°04'8 7.4
2014-Oct-28 22:08N 54°34' E 011°17'5 8.7
2014-Oct-28 21:31N 54°32' E 011°25'8 8.0
2014-Oct-28 20:32N 54°29' E 011°37'8 7.8
2014-Oct-28 19:29N 54°25' E 011°50'8 8.7
2014-Oct-28 18:33N 54°19' E 012°00'9 9.0
2014-Oct-28 17:33N 54°11' E 012°06'3 3.4
2014-Oct-28 16:33N 54°08' E 012°05'0 0.0
2014-Oct-28 14:11N 54°08' E 012°05'0 0.0
2014-Oct-28 12:32N 54°08' E 012°05'0 0.0
2014-Oct-28 11:23N 54°08' E 012°05'0 0.0
2014-Oct-28 10:14N 54°08' E 012°05'0 0.0
2014-Oct-28 09:27N 54°08' E 012°05'0 0.0
2014-Oct-28 08:32N 54°08' E 012°05'0 0.0
2014-Oct-28 07:29N 54°08' E 012°05'0 0.0
2014-Oct-28 06:29N 54°08' E 012°05'0 0.0
2014-Oct-28 04:29N 54°08' E 012°05'0 0.0
2014-Oct-28 03:11N 54°08' E 012°05'0 0.0
2014-Oct-28 01:32N 54°08' E 012°05'0 0.0
2014-Oct-28 00:29N 54°08' E 012°05'0 0.0
2014-Oct-27 23:32N 54°08' E 012°05'0 0.0
2014-Oct-27 22:32N 54°08' E 012°05'0 0.0
2014-Oct-27 21:32N 54°08' E 012°05'0 0.0
2014-Oct-27 20:32N 54°08' E 012°05'0 0.0
2014-Oct-27 19:23N 54°08' E 012°05'0 0.0
2014-Oct-27 18:32N 54°08' E 012°05'0 0.0
2014-Oct-27 17:32N 54°08' E 012°05'0 0.0
2014-Oct-27 16:32N 54°08' E 012°05'0 0.0
2014-Oct-27 14:29N 54°08' E 012°05'0 0.0
2014-Oct-27 13:29N 54°08' E 012°05'0 0.0
2014-Oct-27 11:29N 54°08' E 012°05'0 0.1
2014-Oct-27 10:14N 54°08' E 012°05'0 0.0
2014-Oct-27 09:32N 54°08' E 012°05'0 0.0
2014-Oct-27 08:11N 54°08' E 012°05'0 0.0
2014-Oct-27 07:08N 54°08' E 012°05'0 0.0
2014-Oct-27 06:08N 54°08' E 012°05'0 0.0
2014-Oct-27 04:23N 54°08' E 012°05'0 0.0
2014-Oct-27 02:32N 54°08' E 012°05'0 0.0
2014-Oct-27 01:29N 54°08' E 012°05'0 0.0
2014-Oct-27 00:23N 54°08' E 012°05'0 0.0
2014-Oct-26 23:23N 54°08' E 012°05'0 0.0
2014-Oct-26 22:23N 54°08' E 012°05'0 0.0
2014-Oct-26 21:29N 54°08' E 012°05'0 0.0
2014-Oct-26 20:26N 54°08' E 012°05'0 0.0
2014-Oct-26 18:29N 54°08' E 012°05'0 0.0
2014-Oct-26 17:32N 54°08' E 012°05'0 0.0
2014-Oct-26 16:23N 54°08' E 012°05'0 0.0
2014-Oct-26 14:14N 54°08' E 012°05'0 0.0
2014-Oct-26 13:14N 54°08' E 012°05'0 0.0
2014-Oct-26 12:11N 54°08' E 012°05'0 0.0
2014-Oct-26 11:32N 54°08' E 012°05'0 0.0
2014-Oct-26 10:32N 54°08' E 012°05'0 0.0
2014-Oct-26 08:28N 54°08' E 012°05'0 0.0
2014-Oct-26 07:32N 54°08' E 012°05'0 0.0
2014-Oct-26 06:29N 54°08' E 012°05'0 0.0
2014-Oct-26 05:20N 54°08' E 012°05'0 0.0
2014-Oct-26 04:03N 54°08' E 012°05'0 0.0
2014-Oct-26 03:32N 54°08' E 012°05'0 0.0
2014-Oct-26 02:23N 54°08' E 012°05'0 0.0
2014-Oct-26 01:32N 54°08' E 012°05'0 0.0
2014-Oct-26 00:32N 54°08' E 012°05'0 0.0
2014-Oct-25 23:29N 54°08' E 012°05'0 0.0
2014-Oct-25 20:32N 54°08' E 012°05'0 0.0
2014-Oct-25 19:29N 54°08' E 012°05'0 0.0
2014-Oct-25 18:29N 54°08' E 012°05'0 0.0
2014-Oct-25 17:24N 54°08' E 012°05'0 0.0
2014-Oct-25 16:32N 54°08' E 012°05'0 0.0
2014-Oct-25 15:32N 54°08' E 012°05'0 0.0
2014-Oct-25 14:08N 54°08' E 012°05'0 0.0
2014-Oct-25 13:32N 54°08' E 012°05'0 0.0
2014-Oct-25 12:11N 54°08' E 012°05'0 0.0
2014-Oct-25 11:32N 54°08' E 012°05'0 0.0
2014-Oct-25 10:32N 54°08' E 012°05'0 0.0
2014-Oct-25 09:32N 54°08' E 012°05'0 0.0
2014-Oct-25 08:11N 54°08' E 012°05'0 0.0
2014-Oct-25 07:26N 54°08' E 012°05'0 0.0
2014-Oct-25 00:32N 54°08' E 012°05'0 0.0
2014-Oct-24 23:11N 54°08' E 012°05'0 0.0
2014-Oct-24 22:14N 54°08' E 012°05'0 0.0
2014-Oct-24 20:14N 54°08' E 012°05'0 0.0
2014-Oct-24 19:09N 54°08' E 012°05'0 0.0
2014-Oct-24 18:32N 54°08' E 012°05'0 0.0
2014-Oct-24 17:29N 54°08' E 012°05'0 0.0
2014-Oct-24 16:15N 54°08' E 012°05'0 0.0
2014-Oct-24 14:29N 54°08' E 012°05'0 0.4
2014-Oct-24 13:31N 54°07' E 012°05'5 5.3
2014-Oct-24 12:30N 54°13' E 012°04'1010.3
2014-Oct-24 11:31N 54°20' E 011°52'4210.2
2014-Oct-24 07:22N 54°34' E 010°43'910.7
2014-Oct-24 06:33N 54°32' E 010°29'1110.8
2014-Oct-24 05:33N 54°26' E 010°14'5 5.0
2014-Oct-24 04:33N 54°22' E 010°09'4 3.9
2014-Oct-24 03:33N 54°22' E 010°02'4 4.1
2014-Oct-24 02:33N 54°21' E 009°55'7 7.4
2014-Oct-24 01:33N 54°19' E 009°43'8 7.9
2014-Oct-24 00:33N 54°13' E 009°34'24 6.0
2014-Oct-23 20:30N 53°54' E 009°09'2 2.5
2014-Oct-23 19:33N 53°53' E 009°05'7 6.7
2014-Oct-23 18:33N 53°51' E 008°54'6 6.0
2014-Oct-23 17:33N 53°52' E 008°44'6 5.6
2014-Oct-23 16:33N 53°56' E 008°39'7 6.6
2014-Oct-23 15:33N 53°59' E 008°28'8 7.4
2014-Oct-23 14:31N 53°60' E 008°16'74 9.2
2014-Oct-23 06:28N 53°54' E 006°10'1010.8
2014-Oct-23 05:33N 53°55' E 005°53'1010.4
2014-Oct-23 04:33N 53°57' E 005°36'10 9.7
2014-Oct-23 03:33N 53°58' E 005°19'9 9.0
2014-Oct-23 02:33N 53°59' E 005°04'9 8.8
2014-Oct-23 01:33N 53°60' E 004°49'7 7.2
2014-Oct-23 00:31N 54°07' E 004°48'8 8.0
2014-Oct-22 23:31N 54°07' E 004°35'146 9.1
2014-Oct-22 07:31N 53°34' E 000°34'9 9.8
2014-Oct-22 06:33N 53°33' E 000°19'1010.1
2014-Oct-22 05:33N 53°35' E 000°02'1010.1
2014-Oct-22 04:33N 53°40' W 000°12'6 6.3
2014-Oct-22 03:33N 53°44' W 000°21'0 0.0
2014-Oct-22 02:28N 53°44' W 000°21'0 0.0
2014-Oct-22 01:31N 53°44' W 000°21'0 0.0
2014-Oct-22 00:31N 53°44' W 000°21'0 0.0
2014-Oct-21 23:28N 53°44' W 000°21'0 0.0
2014-Oct-21 22:31N 53°44' W 000°21'0 0.0
2014-Oct-21 21:28N 53°44' W 000°21'0 0.0
2014-Oct-21 20:22N 53°44' W 000°21'0 0.0
2014-Oct-21 19:25N 53°44' W 000°21'0 0.0
2014-Oct-21 18:31N 53°44' W 000°21'0 0.0
2014-Oct-21 17:19N 53°44' W 000°21'0 0.0
2014-Oct-21 16:28N 53°44' W 000°21'0 0.0
2014-Oct-21 15:28N 53°44' W 000°21'0 0.0
2014-Oct-21 14:25N 53°44' W 000°21'0 0.0
2014-Oct-21 13:31N 53°44' W 000°21'0 0.0
2014-Oct-21 12:25N 53°44' W 000°21'0 0.0
2014-Oct-21 11:31N 53°44' W 000°21'0 0.0
2014-Oct-21 10:19N 53°44' W 000°21'0 0.0
2014-Oct-21 09:19N 53°44' W 000°21'0 0.0
2014-Oct-21 08:31N 53°44' W 000°21'  

Dump ship's entire track history